sensor_id;sensor_type;location;lat;lon;timestamp;temperature;humidity
69598;SHT31;70000;51.176;-115.568;2023-05-16T01:34:13;31.27;15.70
69598;SHT31;70000;51.176;-115.568;2023-05-16T01:47:59;30.28;16.93
69598;SHT31;70000;51.176;-115.568;2023-05-16T01:50:59;30.15;17.09
69598;SHT31;70000;51.176;-115.568;2023-05-16T01:53:35;30.03;17.31
69598;SHT31;70000;51.176;-115.568;2023-05-16T01:56:13;29.88;17.43
69598;SHT31;70000;51.176;-115.568;2023-05-16T01:58:46;29.66;17.56
69598;SHT31;70000;51.176;-115.568;2023-05-16T02:01:19;29.49;17.90
69598;SHT31;70000;51.176;-115.568;2023-05-16T02:03:48;29.34;18.17
69598;SHT31;70000;51.176;-115.568;2023-05-16T02:06:18;29.24;18.25
69598;SHT31;70000;51.176;-115.568;2023-05-16T02:08:47;29.10;18.34
69598;SHT31;70000;51.176;-115.568;2023-05-16T02:11:16;28.99;18.59
69598;SHT31;70000;51.176;-115.568;2023-05-16T02:13:46;28.85;18.43
69598;SHT31;70000;51.176;-115.568;2023-05-16T02:16:15;28.70;18.72
69598;SHT31;70000;51.176;-115.568;2023-05-16T02:18:44;28.58;18.77
69598;SHT31;70000;51.176;-115.568;2023-05-16T02:21:14;28.46;19.04
69598;SHT31;70000;51.176;-115.568;2023-05-16T02:23:43;28.33;18.77
69598;SHT31;70000;51.176;-115.568;2023-05-16T02:26:13;28.20;18.92
69598;SHT31;70000;51.176;-115.568;2023-05-16T02:28:43;28.09;19.41
69598;SHT31;70000;51.176;-115.568;2023-05-16T02:31:12;27.97;20.01
69598;SHT31;70000;51.176;-115.568;2023-05-16T02:33:56;27.84;20.41
69598;SHT31;70000;51.176;-115.568;2023-05-16T02:36:29;27.71;20.89
69598;SHT31;70000;51.176;-115.568;2023-05-16T02:39:01;27.58;20.98
69598;SHT31;70000;51.176;-115.568;2023-05-16T02:41:35;27.43;21.25
69598;SHT31;70000;51.176;-115.568;2023-05-16T02:44:05;27.32;21.69
69598;SHT31;70000;51.176;-115.568;2023-05-16T02:46:34;27.19;21.91
69598;SHT31;70000;51.176;-115.568;2023-05-16T02:49:05;27.08;22.19
69598;SHT31;70000;51.176;-115.568;2023-05-16T02:51:34;26.98;22.24
69598;SHT31;70000;51.176;-115.568;2023-05-16T02:54:05;26.86;22.37
69598;SHT31;70000;51.176;-115.568;2023-05-16T02:56:36;26.74;22.38
69598;SHT31;70000;51.176;-115.568;2023-05-16T02:59:05;26.59;22.70
69598;SHT31;70000;51.176;-115.568;2023-05-16T03:01:35;26.47;22.67
69598;SHT31;70000;51.176;-115.568;2023-05-16T03:04:05;26.34;22.88
69598;SHT31;70000;51.176;-115.568;2023-05-16T03:06:34;26.22;23.05
69598;SHT31;70000;51.176;-115.568;2023-05-16T03:09:03;26.09;23.08
69598;SHT31;70000;51.176;-115.568;2023-05-16T03:11:35;25.97;23.13
69598;SHT31;70000;51.176;-115.568;2023-05-16T03:14:05;25.83;23.18
69598;SHT31;70000;51.176;-115.568;2023-05-16T03:16:35;25.67;23.39
69598;SHT31;70000;51.176;-115.568;2023-05-16T03:19:11;25.55;23.06
69598;SHT31;70000;51.176;-115.568;2023-05-16T03:21:49;25.45;23.07
69598;SHT31;70000;51.176;-115.568;2023-05-16T03:24:20;25.35;23.23
69598;SHT31;70000;51.176;-115.568;2023-05-16T03:27:00;25.22;23.46
69598;SHT31;70000;51.176;-115.568;2023-05-16T03:29:36;25.10;23.66
69598;SHT31;70000;51.176;-115.568;2023-05-16T03:32:13;24.99;23.66
69598;SHT31;70000;51.176;-115.568;2023-05-16T03:34:43;24.87;23.66
69598;SHT31;70000;51.176;-115.568;2023-05-16T03:37:13;24.77;23.86
69598;SHT31;70000;51.176;-115.568;2023-05-16T03:39:47;24.65;23.97
69598;SHT31;70000;51.176;-115.568;2023-05-16T03:42:20;24.55;23.90
69598;SHT31;70000;51.176;-115.568;2023-05-16T03:44:49;24.45;24.23
69598;SHT31;70000;51.176;-115.568;2023-05-16T03:47:19;24.35;24.72
69598;SHT31;70000;51.176;-115.568;2023-05-16T03:49:51;24.25;25.20
69598;SHT31;70000;51.176;-115.568;2023-05-16T03:52:24;24.16;25.01
69598;SHT31;70000;51.176;-115.568;2023-05-16T03:54:54;24.08;25.07
69598;SHT31;70000;51.176;-115.568;2023-05-16T03:57:28;23.98;25.01
69598;SHT31;70000;51.176;-115.568;2023-05-16T04:00:05;23.85;25.39
69598;SHT31;70000;51.176;-115.568;2023-05-16T04:02:44;23.74;25.46
69598;SHT31;70000;51.176;-115.568;2023-05-16T04:05:16;23.62;25.87
69598;SHT31;70000;51.176;-115.568;2023-05-16T04:07:52;23.49;26.04
69598;SHT31;70000;51.176;-115.568;2023-05-16T04:10:24;23.38;26.06
69598;SHT31;70000;51.176;-115.568;2023-05-16T04:12:57;23.25;26.21
69598;SHT31;70000;51.176;-115.568;2023-05-16T04:15:26;23.15;26.28
69598;SHT31;70000;51.176;-115.568;2023-05-16T04:17:56;23.06;26.34
69598;SHT31;70000;51.176;-115.568;2023-05-16T04:20:28;22.95;26.38
69598;SHT31;70000;51.176;-115.568;2023-05-16T04:22:59;22.85;26.59
69598;SHT31;70000;51.176;-115.568;2023-05-16T04:25:29;22.77;26.73
69598;SHT31;70000;51.176;-115.568;2023-05-16T04:28:01;22.66;26.82
69598;SHT31;70000;51.176;-115.568;2023-05-16T04:30:35;22.56;26.99
69598;SHT31;70000;51.176;-115.568;2023-05-16T04:33:05;22.48;27.13
69598;SHT31;70000;51.176;-115.568;2023-05-16T04:35:35;22.39;27.26
69598;SHT31;70000;51.176;-115.568;2023-05-16T04:38:05;22.31;27.32
69598;SHT31;70000;51.176;-115.568;2023-05-16T04:46:02;22.03;27.66
69598;SHT31;70000;51.176;-115.568;2023-05-16T04:48:37;21.94;27.68
69598;SHT31;70000;51.176;-115.568;2023-05-16T04:51:06;21.85;27.83
69598;SHT31;70000;51.176;-115.568;2023-05-16T04:53:37;21.75;28.21
69598;SHT31;70000;51.176;-115.568;2023-05-16T04:56:07;21.65;28.22
69598;SHT31;70000;51.176;-115.568;2023-05-16T04:58:37;21.57;28.25
69598;SHT31;70000;51.176;-115.568;2023-05-16T05:01:09;21.48;28.33
69598;SHT31;70000;51.176;-115.568;2023-05-16T05:03:41;21.39;28.47
69598;SHT31;70000;51.176;-115.568;2023-05-16T05:06:13;21.32;28.66
69598;SHT31;70000;51.176;-115.568;2023-05-16T05:08:43;21.24;28.61
69598;SHT31;70000;51.176;-115.568;2023-05-16T05:11:12;21.12;28.52
69598;SHT31;70000;51.176;-115.568;2023-05-16T05:13:41;21.02;28.76
69598;SHT31;70000;51.176;-115.568;2023-05-16T05:16:11;20.94;29.10
69598;SHT31;70000;51.176;-115.568;2023-05-16T05:18:40;20.89;29.17
69598;SHT31;70000;51.176;-115.568;2023-05-16T05:21:11;20.79;29.22
69598;SHT31;70000;51.176;-115.568;2023-05-16T05:23:40;20.72;29.37
69598;SHT31;70000;51.176;-115.568;2023-05-16T05:26:10;20.64;29.55
69598;SHT31;70000;51.176;-115.568;2023-05-16T05:28:40;20.55;29.60
69598;SHT31;70000;51.176;-115.568;2023-05-16T05:31:19;20.49;29.84
69598;SHT31;70000;51.176;-115.568;2023-05-16T05:33:48;20.43;29.85
69598;SHT31;70000;51.176;-115.568;2023-05-16T05:36:17;20.38;29.96
69598;SHT31;70000;51.176;-115.568;2023-05-16T05:38:46;20.31;29.95
69598;SHT31;70000;51.176;-115.568;2023-05-16T05:41:16;20.28;30.05
69598;SHT31;70000;51.176;-115.568;2023-05-16T05:43:45;20.23;30.11
69598;SHT31;70000;51.176;-115.568;2023-05-16T05:46:16;20.21;30.12
69598;SHT31;70000;51.176;-115.568;2023-05-16T05:48:45;20.16;30.05
69598;SHT31;70000;51.176;-115.568;2023-05-16T05:51:14;20.14;30.23
69598;SHT31;70000;51.176;-115.568;2023-05-16T05:53:44;20.12;30.28
69598;SHT31;70000;51.176;-115.568;2023-05-16T05:56:14;20.05;30.25
69598;SHT31;70000;51.176;-115.568;2023-05-16T05:58:43;19.98;30.41
69598;SHT31;70000;51.176;-115.568;2023-05-16T06:01:13;19.90;30.35
69598;SHT31;70000;51.176;-115.568;2023-05-16T06:03:42;19.83;30.40
69598;SHT31;70000;51.176;-115.568;2023-05-16T06:06:12;19.78;30.48
69598;SHT31;70000;51.176;-115.568;2023-05-16T06:08:41;19.74;30.56
69598;SHT31;70000;51.176;-115.568;2023-05-16T06:11:14;19.67;30.66
69598;SHT31;70000;51.176;-115.568;2023-05-16T06:13:43;19.63;30.88
69598;SHT31;70000;51.176;-115.568;2023-05-16T06:16:13;19.58;30.85
69598;SHT31;70000;51.176;-115.568;2023-05-16T06:18:42;19.55;30.94
69598;SHT31;70000;51.176;-115.568;2023-05-16T06:21:11;19.51;31.02
69598;SHT31;70000;51.176;-115.568;2023-05-16T06:23:41;19.47;31.10
69598;SHT31;70000;51.176;-115.568;2023-05-16T06:26:11;19.42;31.16
69598;SHT31;70000;51.176;-115.568;2023-05-16T06:28:40;19.39;31.30
69598;SHT31;70000;51.176;-115.568;2023-05-16T06:31:09;19.34;31.33
69598;SHT31;70000;51.176;-115.568;2023-05-16T06:33:39;19.30;31.48
69598;SHT31;70000;51.176;-115.568;2023-05-16T06:36:08;19.24;31.60
69598;SHT31;70000;51.176;-115.568;2023-05-16T06:38:37;19.18;31.65
69598;SHT31;70000;51.176;-115.568;2023-05-16T06:41:06;19.12;31.88
69598;SHT31;70000;51.176;-115.568;2023-05-16T06:43:37;19.04;31.98
69598;SHT31;70000;51.176;-115.568;2023-05-16T06:46:07;18.97;32.36
69598;SHT31;70000;51.176;-115.568;2023-05-16T06:48:39;18.88;32.54
69598;SHT31;70000;51.176;-115.568;2023-05-16T06:51:28;18.78;32.78
69598;SHT31;70000;51.176;-115.568;2023-05-16T06:54:03;18.71;32.89
69598;SHT31;70000;51.176;-115.568;2023-05-16T06:56:33;18.65;33.03
69598;SHT31;70000;51.176;-115.568;2023-05-16T06:59:02;18.59;32.99
69598;SHT31;70000;51.176;-115.568;2023-05-16T07:01:38;18.51;33.16
69598;SHT31;70000;51.176;-115.568;2023-05-16T07:04:11;18.44;33.33
69598;SHT31;70000;51.176;-115.568;2023-05-16T07:06:44;18.39;33.16
69598;SHT31;70000;51.176;-115.568;2023-05-16T07:09:23;18.35;33.29
69598;SHT31;70000;51.176;-115.568;2023-05-16T07:11:53;18.28;33.51
69598;SHT31;70000;51.176;-115.568;2023-05-16T07:14:26;18.25;33.55
69598;SHT31;70000;51.176;-115.568;2023-05-16T07:16:58;18.23;33.54
69598;SHT31;70000;51.176;-115.568;2023-05-16T07:19:34;18.20;33.70
69598;SHT31;70000;51.176;-115.568;2023-05-16T07:22:13;18.14;33.68
69598;SHT31;70000;51.176;-115.568;2023-05-16T07:24:57;18.09;33.79
69598;SHT31;70000;51.176;-115.568;2023-05-16T07:27:31;18.08;33.91
69598;SHT31;70000;51.176;-115.568;2023-05-16T07:30:07;18.03;33.98
69598;SHT31;70000;51.176;-115.568;2023-05-16T07:32:42;17.99;34.10
69598;SHT31;70000;51.176;-115.568;2023-05-16T07:35:15;17.96;34.30
69598;SHT31;70000;51.176;-115.568;2023-05-16T07:37:44;17.91;34.16
69598;SHT31;70000;51.176;-115.568;2023-05-16T07:47:26;17.75;34.56
69598;SHT31;70000;51.176;-115.568;2023-05-16T07:49:56;17.70;34.89
69598;SHT31;70000;51.176;-115.568;2023-05-16T07:52:28;17.65;34.87
69598;SHT31;70000;51.176;-115.568;2023-05-16T07:55:02;17.60;34.97
69598;SHT31;70000;51.176;-115.568;2023-05-16T07:57:35;17.55;34.98
69598;SHT31;70000;51.176;-115.568;2023-05-16T08:00:11;17.54;34.93
69598;SHT31;70000;51.176;-115.568;2023-05-16T08:02:44;17.52;35.06
69598;SHT31;70000;51.176;-115.568;2023-05-16T08:05:18;17.49;35.33
69598;SHT31;70000;51.176;-115.568;2023-05-16T08:07:52;17.45;35.43
69598;SHT31;70000;51.176;-115.568;2023-05-16T08:10:23;17.40;35.69
69598;SHT31;70000;51.176;-115.568;2023-05-16T08:21:36;17.16;36.23
69598;SHT31;70000;51.176;-115.568;2023-05-16T08:24:20;17.12;36.71
69598;SHT31;70000;51.176;-115.568;2023-05-16T08:27:03;17.07;36.92
69598;SHT31;70000;51.176;-115.568;2023-05-16T08:29:45;17.01;36.93
69598;SHT31;70000;51.176;-115.568;2023-05-16T08:32:48;16.95;36.96
69598;SHT31;70000;51.176;-115.568;2023-05-16T08:38:06;16.86;37.02
69598;SHT31;70000;51.176;-115.568;2023-05-16T08:40:53;16.78;37.10
69598;SHT31;70000;51.176;-115.568;2023-05-16T08:43:38;16.71;37.34
69598;SHT31;70000;51.176;-115.568;2023-05-16T08:46:20;16.63;37.42
69598;SHT31;70000;51.176;-115.568;2023-05-16T08:49:25;16.56;37.64
69598;SHT31;70000;51.176;-115.568;2023-05-16T08:52:12;16.52;37.78
69598;SHT31;70000;51.176;-115.568;2023-05-16T08:55:18;16.45;37.82
69598;SHT31;70000;51.176;-115.568;2023-05-16T08:58:15;16.40;38.02
69598;SHT31;70000;51.176;-115.568;2023-05-16T09:00:51;16.34;38.04
69598;SHT31;70000;51.176;-115.568;2023-05-16T09:03:36;16.30;38.24
69598;SHT31;70000;51.176;-115.568;2023-05-16T09:06:07;16.24;38.26
69598;SHT31;70000;51.176;-115.568;2023-05-16T09:08:37;16.18;38.40
69598;SHT31;70000;51.176;-115.568;2023-05-16T09:11:19;16.12;38.54
69598;SHT31;70000;51.176;-115.568;2023-05-16T09:14:01;16.06;38.62
69598;SHT31;70000;51.176;-115.568;2023-05-16T09:16:43;16.00;38.81
69598;SHT31;70000;51.176;-115.568;2023-05-16T09:19:41;15.96;38.90
69598;SHT31;70000;51.176;-115.568;2023-05-16T09:22:25;15.90;39.16
69598;SHT31;70000;51.176;-115.568;2023-05-16T09:28:37;15.77;39.41
69598;SHT31;70000;51.176;-115.568;2023-05-16T09:31:38;15.73;39.37
69598;SHT31;70000;51.176;-115.568;2023-05-16T09:34:22;15.70;39.45
69598;SHT31;70000;51.176;-115.568;2023-05-16T09:37:10;15.64;39.54
69598;SHT31;70000;51.176;-115.568;2023-05-16T09:39:46;15.58;39.45
69598;SHT31;70000;51.176;-115.568;2023-05-16T09:42:29;15.54;39.54
69598;SHT31;70000;51.176;-115.568;2023-05-16T09:45:20;15.51;39.71
69598;SHT31;70000;51.176;-115.568;2023-05-16T09:48:00;15.48;39.88
69598;SHT31;70000;51.176;-115.568;2023-05-16T09:51:15;15.39;39.85
69598;SHT31;70000;51.176;-115.568;2023-05-16T09:54:41;15.35;39.82
69598;SHT31;70000;51.176;-115.568;2023-05-16T09:57:49;15.32;39.84
69598;SHT31;70000;51.176;-115.568;2023-05-16T10:00:30;15.27;39.95
69598;SHT31;70000;51.176;-115.568;2023-05-16T10:06:57;15.18;40.23
69598;SHT31;70000;51.176;-115.568;2023-05-16T10:10:05;15.15;40.37
69598;SHT31;70000;51.176;-115.568;2023-05-16T10:13:07;15.10;40.36
69598;SHT31;70000;51.176;-115.568;2023-05-16T10:15:55;15.07;40.41
69598;SHT31;70000;51.176;-115.568;2023-05-16T10:18:43;15.04;40.63
69598;SHT31;70000;51.176;-115.568;2023-05-16T10:24:41;14.84;41.40
69598;SHT31;70000;51.176;-115.568;2023-05-16T10:27:21;14.75;41.71
69598;SHT31;70000;51.176;-115.568;2023-05-16T10:29:52;14.65;41.95
69598;SHT31;70000;51.176;-115.568;2023-05-16T10:32:22;14.55;42.07
69598;SHT31;70000;51.176;-115.568;2023-05-16T10:34:58;14.49;42.30
69598;SHT31;70000;51.176;-115.568;2023-05-16T10:37:35;14.44;42.43
69598;SHT31;70000;51.176;-115.568;2023-05-16T10:40:05;14.38;42.66
69598;SHT31;70000;51.176;-115.568;2023-05-16T10:42:36;14.34;42.66
69598;SHT31;70000;51.176;-115.568;2023-05-16T10:45:23;14.28;42.76
69598;SHT31;70000;51.176;-115.568;2023-05-16T10:48:00;14.22;42.97
69598;SHT31;70000;51.176;-115.568;2023-05-16T10:50:36;14.15;43.01
69598;SHT31;70000;51.176;-115.568;2023-05-16T11:04:02;13.99;43.07
69598;SHT31;70000;51.176;-115.568;2023-05-16T11:11:52;13.88;43.31
69598;SHT31;70000;51.176;-115.568;2023-05-16T11:17:37;13.78;43.15
69598;SHT31;70000;51.176;-115.568;2023-05-16T11:20:33;13.77;43.41
69598;SHT31;70000;51.176;-115.568;2023-05-16T11:25:54;13.69;43.48
69598;SHT31;70000;51.176;-115.568;2023-05-16T11:28:27;13.66;43.57
69598;SHT31;70000;51.176;-115.568;2023-05-16T11:30:57;13.61;43.65
69598;SHT31;70000;51.176;-115.568;2023-05-16T11:33:29;13.59;43.99
69598;SHT31;70000;51.176;-115.568;2023-05-16T11:36:06;13.55;44.23
69598;SHT31;70000;51.176;-115.568;2023-05-16T11:38:42;13.50;44.32
69598;SHT31;70000;51.176;-115.568;2023-05-16T11:41:12;13.44;44.50
69598;SHT31;70000;51.176;-115.568;2023-05-16T11:43:50;13.37;44.62
69598;SHT31;70000;51.176;-115.568;2023-05-16T11:46:28;13.31;44.72
69598;SHT31;70000;51.176;-115.568;2023-05-16T11:49:02;13.24;45.00
69598;SHT31;70000;51.176;-115.568;2023-05-16T11:51:31;13.19;45.14
69598;SHT31;70000;51.176;-115.568;2023-05-16T11:54:01;13.14;45.31
69598;SHT31;70000;51.176;-115.568;2023-05-16T11:56:52;13.12;45.28
69598;SHT31;70000;51.176;-115.568;2023-05-16T11:59:21;13.10;45.35
69598;SHT31;70000;51.176;-115.568;2023-05-16T12:01:56;13.06;45.50
69598;SHT31;70000;51.176;-115.568;2023-05-16T12:04:30;13.02;45.68
69598;SHT31;70000;51.176;-115.568;2023-05-16T12:07:02;12.97;45.75
69598;SHT31;70000;51.176;-115.568;2023-05-16T12:09:50;12.91;45.84
69598;SHT31;70000;51.176;-115.568;2023-05-16T12:12:23;12.85;45.89
69598;SHT31;70000;51.176;-115.568;2023-05-16T12:14:53;12.81;45.95
69598;SHT31;70000;51.176;-115.568;2023-05-16T12:17:25;12.79;45.99
69598;SHT31;70000;51.176;-115.568;2023-05-16T12:19:57;12.78;45.95
69598;SHT31;70000;51.176;-115.568;2023-05-16T12:22:41;12.77;46.06
69598;SHT31;70000;51.176;-115.568;2023-05-16T12:25:25;12.74;46.30
69598;SHT31;70000;51.176;-115.568;2023-05-16T12:28:12;12.70;46.45
69598;SHT31;70000;51.176;-115.568;2023-05-16T12:30:45;12.67;46.65
69598;SHT31;70000;51.176;-115.568;2023-05-16T12:33:15;12.64;46.94
69598;SHT31;70000;51.176;-115.568;2023-05-16T12:35:53;12.58;47.06
69598;SHT31;70000;51.176;-115.568;2023-05-16T12:38:26;12.56;47.00
69598;SHT31;70000;51.176;-115.568;2023-05-16T12:40:58;12.53;47.20
69598;SHT31;70000;51.176;-115.568;2023-05-16T12:43:34;12.51;47.29
69598;SHT31;70000;51.176;-115.568;2023-05-16T12:46:03;12.51;47.12
69598;SHT31;70000;51.176;-115.568;2023-05-16T12:49:09;12.51;47.05
69598;SHT31;70000;51.176;-115.568;2023-05-16T12:51:40;12.51;47.29
69598;SHT31;70000;51.176;-115.568;2023-05-16T12:54:20;12.49;47.36
69598;SHT31;70000;51.176;-115.568;2023-05-16T12:56:55;12.49;47.31
69598;SHT31;70000;51.176;-115.568;2023-05-16T12:59:32;12.50;47.33
69598;SHT31;70000;51.176;-115.568;2023-05-16T13:02:28;12.50;47.24
69598;SHT31;70000;51.176;-115.568;2023-05-16T13:05:10;12.48;47.27
69598;SHT31;70000;51.176;-115.568;2023-05-16T13:07:44;12.48;47.32
69598;SHT31;70000;51.176;-115.568;2023-05-16T13:10:18;12.48;47.23
69598;SHT31;70000;51.176;-115.568;2023-05-16T13:12:49;12.46;47.02
69598;SHT31;70000;51.176;-115.568;2023-05-16T13:15:18;12.45;46.91
69598;SHT31;70000;51.176;-115.568;2023-05-16T13:17:48;12.46;46.98
69598;SHT31;70000;51.176;-115.568;2023-05-16T13:20:23;12.46;46.95
69598;SHT31;70000;51.176;-115.568;2023-05-16T13:22:59;12.48;47.26
69598;SHT31;70000;51.176;-115.568;2023-05-16T13:25:35;12.49;47.26
69598;SHT31;70000;51.176;-115.568;2023-05-16T13:28:08;12.49;47.17
69598;SHT31;70000;51.176;-115.568;2023-05-16T13:30:40;12.50;46.90
69598;SHT31;70000;51.176;-115.568;2023-05-16T13:33:09;12.50;46.91
69598;SHT31;70000;51.176;-115.568;2023-05-16T13:35:47;12.51;46.91
69598;SHT31;70000;51.176;-115.568;2023-05-16T13:38:21;12.50;46.94
69598;SHT31;70000;51.176;-115.568;2023-05-16T13:40:56;12.52;46.91
69598;SHT31;70000;51.176;-115.568;2023-05-16T13:43:31;12.55;46.85
69598;SHT31;70000;51.176;-115.568;2023-05-16T13:46:06;12.56;46.64
69598;SHT31;70000;51.176;-115.568;2023-05-16T13:48:36;12.56;46.60
69598;SHT31;70000;51.176;-115.568;2023-05-16T13:51:05;12.56;46.69
69598;SHT31;70000;51.176;-115.568;2023-05-16T13:53:40;12.55;46.87
69598;SHT31;70000;51.176;-115.568;2023-05-16T13:56:34;12.57;47.07
69598;SHT31;70000;51.176;-115.568;2023-05-16T13:59:09;12.59;46.96
69598;SHT31;70000;51.176;-115.568;2023-05-16T14:02:03;12.61;46.89
69598;SHT31;70000;51.176;-115.568;2023-05-16T14:04:52;12.63;46.54
69598;SHT31;70000;51.176;-115.568;2023-05-16T14:07:48;12.66;46.57
69598;SHT31;70000;51.176;-115.568;2023-05-16T14:10:22;12.67;46.35
69598;SHT31;70000;51.176;-115.568;2023-05-16T14:12:54;12.68;46.46
69598;SHT31;70000;51.176;-115.568;2023-05-16T14:15:28;12.70;46.36
69598;SHT31;70000;51.176;-115.568;2023-05-16T14:18:03;12.72;46.44
69598;SHT31;70000;51.176;-115.568;2023-05-16T14:20:36;12.75;46.32
69598;SHT31;70000;51.176;-115.568;2023-05-16T14:23:05;12.80;46.48
69598;SHT31;70000;51.176;-115.568;2023-05-16T14:25:34;12.84;46.59
69598;SHT31;70000;51.176;-115.568;2023-05-16T14:28:06;12.90;46.71
69598;SHT31;70000;51.176;-115.568;2023-05-16T14:30:35;12.94;46.52
69598;SHT31;70000;51.176;-115.568;2023-05-16T14:33:13;12.98;46.35
69598;SHT31;70000;51.176;-115.568;2023-05-16T14:35:48;12.99;46.21
69598;SHT31;70000;51.176;-115.568;2023-05-16T14:38:18;13.02;46.14
69598;SHT31;70000;51.176;-115.568;2023-05-16T14:40:53;13.03;45.98
69598;SHT31;70000;51.176;-115.568;2023-05-16T14:43:33;13.07;46.04
69598;SHT31;70000;51.176;-115.568;2023-05-16T14:46:05;13.07;46.06
69598;SHT31;70000;51.176;-115.568;2023-05-16T14:48:34;13.10;46.08
69598;SHT31;70000;51.176;-115.568;2023-05-16T14:51:09;13.12;46.02
69598;SHT31;70000;51.176;-115.568;2023-05-16T14:53:40;13.15;46.15
69598;SHT31;70000;51.176;-115.568;2023-05-16T14:56:12;13.18;46.19
69598;SHT31;70000;51.176;-115.568;2023-05-16T14:58:42;13.21;46.42
69598;SHT31;70000;51.176;-115.568;2023-05-16T15:01:11;13.24;46.50
69598;SHT31;70000;51.176;-115.568;2023-05-16T15:03:41;13.29;46.31
69598;SHT31;70000;51.176;-115.568;2023-05-16T15:06:22;13.34;46.46
69598;SHT31;70000;51.176;-115.568;2023-05-16T15:08:52;13.39;46.52
69598;SHT31;70000;51.176;-115.568;2023-05-16T15:11:21;13.43;46.45
69598;SHT31;70000;51.176;-115.568;2023-05-16T15:13:51;13.47;46.37
69598;SHT31;70000;51.176;-115.568;2023-05-16T15:16:24;13.53;46.31
69598;SHT31;70000;51.176;-115.568;2023-05-16T15:18:54;13.59;46.37
69598;SHT31;70000;51.176;-115.568;2023-05-16T15:21:26;13.64;46.44
69598;SHT31;70000;51.176;-115.568;2023-05-16T15:24:05;13.70;46.59
69598;SHT31;70000;51.176;-115.568;2023-05-16T15:26:35;13.76;46.61
69598;SHT31;70000;51.176;-115.568;2023-05-16T15:29:19;13.83;46.79
69598;SHT31;70000;51.176;-115.568;2023-05-16T15:31:54;13.89;46.73
69598;SHT31;70000;51.176;-115.568;2023-05-16T15:34:26;13.97;46.48
69598;SHT31;70000;51.176;-115.568;2023-05-16T15:36:59;14.02;46.24
69598;SHT31;70000;51.176;-115.568;2023-05-16T15:39:28;14.08;46.02
69598;SHT31;70000;51.176;-115.568;2023-05-16T15:41:58;14.13;45.87
69598;SHT31;70000;51.176;-115.568;2023-05-16T15:44:37;14.18;45.33
69598;SHT31;70000;51.176;-115.568;2023-05-16T15:47:07;14.24;45.31
69598;SHT31;70000;51.176;-115.568;2023-05-16T15:49:37;14.31;45.41
69598;SHT31;70000;51.176;-115.568;2023-05-16T15:52:09;14.37;45.53
69598;SHT31;70000;51.176;-115.568;2023-05-16T15:54:41;14.41;45.66
69598;SHT31;70000;51.176;-115.568;2023-05-16T15:57:23;14.45;45.49
69598;SHT31;70000;51.176;-115.568;2023-05-16T15:59:52;14.51;45.37
69598;SHT31;70000;51.176;-115.568;2023-05-16T16:02:25;14.56;45.20
69598;SHT31;70000;51.176;-115.568;2023-05-16T16:04:55;14.59;45.22
69598;SHT31;70000;51.176;-115.568;2023-05-16T16:07:24;14.64;45.56
69598;SHT31;70000;51.176;-115.568;2023-05-16T16:09:54;14.70;45.71
69598;SHT31;70000;51.176;-115.568;2023-05-16T16:12:32;14.76;45.96
69598;SHT31;70000;51.176;-115.568;2023-05-16T16:15:13;14.81;46.12
69598;SHT31;70000;51.176;-115.568;2023-05-16T16:17:59;14.88;46.08
69598;SHT31;70000;51.176;-115.568;2023-05-16T16:21:00;14.95;45.85
69598;SHT31;70000;51.176;-115.568;2023-05-16T16:23:36;15.01;45.81
69598;SHT31;70000;51.176;-115.568;2023-05-16T16:26:23;15.06;45.74
69598;SHT31;70000;51.176;-115.568;2023-05-16T16:28:53;15.12;45.75
69598;SHT31;70000;51.176;-115.568;2023-05-16T16:31:27;15.17;45.46
69598;SHT31;70000;51.176;-115.568;2023-05-16T16:34:02;15.24;45.49
69598;SHT31;70000;51.176;-115.568;2023-05-16T16:36:31;15.30;45.49
69598;SHT31;70000;51.176;-115.568;2023-05-16T16:39:00;15.36;45.24
69598;SHT31;70000;51.176;-115.568;2023-05-16T16:41:37;15.43;44.90
69598;SHT31;70000;51.176;-115.568;2023-05-16T16:44:06;15.50;44.76
69598;SHT31;70000;51.176;-115.568;2023-05-16T16:46:35;15.56;44.74
69598;SHT31;70000;51.176;-115.568;2023-05-16T16:49:15;15.64;45.10
69598;SHT31;70000;51.176;-115.568;2023-05-16T16:51:44;15.70;45.18
69598;SHT31;70000;51.176;-115.568;2023-05-16T16:54:14;15.77;45.20
69598;SHT31;70000;51.176;-115.568;2023-05-16T16:56:49;15.83;45.10
69598;SHT31;70000;51.176;-115.568;2023-05-16T16:59:22;15.91;45.04
69598;SHT31;70000;51.176;-115.568;2023-05-16T17:01:51;15.98;44.83
69598;SHT31;70000;51.176;-115.568;2023-05-16T17:04:22;16.04;44.86
69598;SHT31;70000;51.176;-115.568;2023-05-16T17:07:09;16.11;44.67
69598;SHT31;70000;51.176;-115.568;2023-05-16T17:09:41;16.18;44.16
69598;SHT31;70000;51.176;-115.568;2023-05-16T17:12:12;16.24;43.99
69598;SHT31;70000;51.176;-115.568;2023-05-16T17:14:48;16.31;43.56
69598;SHT31;70000;51.176;-115.568;2023-05-16T17:17:18;16.37;43.45
69598;SHT31;70000;51.176;-115.568;2023-05-16T17:19:50;16.45;43.36
69598;SHT31;70000;51.176;-115.568;2023-05-16T17:22:28;16.53;43.06
69598;SHT31;70000;51.176;-115.568;2023-05-16T17:24:58;16.59;42.59
69598;SHT31;70000;51.176;-115.568;2023-05-16T17:27:32;16.67;42.01
69598;SHT31;70000;51.176;-115.568;2023-05-16T17:30:01;16.75;42.13
69598;SHT31;70000;51.176;-115.568;2023-05-16T17:32:40;16.82;41.79
69598;SHT31;70000;51.176;-115.568;2023-05-16T17:35:16;16.90;41.59
69598;SHT31;70000;51.176;-115.568;2023-05-16T17:37:47;16.98;41.94
69598;SHT31;70000;51.176;-115.568;2023-05-16T17:44:42;17.15;41.87
69598;SHT31;70000;51.176;-115.568;2023-05-16T17:47:35;17.22;42.00
69598;SHT31;70000;51.176;-115.568;2023-05-16T17:50:22;17.36;42.04
69598;SHT31;70000;51.176;-115.568;2023-05-16T17:53:26;17.46;42.14
69598;SHT31;70000;51.176;-115.568;2023-05-16T17:56:04;17.55;42.07
69598;SHT31;70000;51.176;-115.568;2023-05-16T20:10:33;22.17;33.54
69598;SHT31;70000;51.176;-115.568;2023-05-16T20:13:57;22.30;33.37
69598;SHT31;70000;51.176;-115.568;2023-05-16T20:16:40;22.38;33.26
69598;SHT31;70000;51.176;-115.568;2023-05-16T20:20:29;22.50;33.28
69598;SHT31;70000;51.176;-115.568;2023-05-16T20:23:13;22.59;32.84
69598;SHT31;70000;51.176;-115.568;2023-05-16T20:26:08;22.71;32.39
69598;SHT31;70000;51.176;-115.568;2023-05-16T20:28:43;22.80;32.29
69598;SHT31;70000;51.176;-115.568;2023-05-16T20:31:29;22.90;32.06
69598;SHT31;70000;51.176;-115.568;2023-05-16T20:34:29;23.00;32.31
69598;SHT31;70000;51.176;-115.568;2023-05-16T20:37:12;23.11;31.91